Tiempo atmosférico en la estación meteorológica de Arcos de Jalón, Soria (863 m.)



Fecha
DESCASC
Temp. máxima en grados centígrados (hora)
DESCASC
Temp. mínima en grados centígrados (hora)
DESCASC
Temp. media en grados centígrados
DESCASC
Racha de viento máxima en m/sg (hora)
DESCASC
Velocidad máxima media en intervalos de 10 minutos(hora)
DESCASC
Precipitaciones diarias en mm
DESCASC
Precipitaciones de 00:00 a 06:00 en mm
DESCASC
Precipitaciones de 06:00 a 12:00 en mm
DESCASC
Precipitaciones de 12:00 a 18:00 en mm
DESCASC
Precipitaciones de 18:00 a 24:00 en mm
DESCASC
20-09-2018 31.6 (17:00) 13.7 (08:10) 22.7 9.44 (18:40) 6.39 (18:40) 0 0 0 0 0
19-09-2018 29.7 (16:40) 12.6 (08:00) 21.2 5 (01:40) 3.89 (01:40) 0 0 0 0 0
18-09-2018 27.4 (16:20) 13.5 (07:30) 20.4 9.44 (17:40) 5.28 (02:20) 0 0 0 0 0
17-09-2018 29.1 (15:20) 14.7 (07:50) 21.9 10 (17:20) 6.11 (17:00) 4.8 0 0 4.8 0
16-09-2018 29.8 (16:50) 14.9 (00:00) 22.3 5.83 (02:00) 4.17 (02:00) 0 0 0 0 0
15-09-2018 28.1 (17:40) 12.4 (00:00) 20.3 7.78 (19:40) 4.72 (19:30) 0 0 0 0 0
14-09-2018 29.2 (16:10) 12 (00:00) 20.6 7.22 (19:30) 3.61 (19:40) 0 0 0 0 0
13-09-2018 29.4 (16:20) 13.1 (00:00) 21.3 6.67 (20:20) 4.17 (20:20) 0 0 0 0 0
12-09-2018 -- (--) -- (--) -- -- (--) -- (--) -- 8.4 1 -- 0
11-09-2018 25.4 (15:10) 12.7 (00:00) 19 10 (15:30) 5.83 (15:40) 0.2 0 0 0 0.2
10-09-2018 -- (--) -- (--) -- -- (--) -- (--) -- -- -- -- 0
09-09-2018 -- (--) -- (--) -- -- (--) -- (--) -- -- -- -- --
08-09-2018 -- (--) -- (--) -- -- (--) -- (--) -- 3.6 0 0.2 --
07-09-2018 26 (17:40) 11.1 (00:00) 18.6 8.06 (18:30) 4.72 (18:40) 0.4 0 0 0 0.4
06-09-2018 25.1 (16:00) 11.5 (00:00) 18.3 7.78 (16:50) 4.72 (17:00) 10.4 0 0 10.2 0.2
05-09-2018 29 (16:20) 12.2 (00:00) 20.6 11.39 (15:50) 6.67 (17:00) 0 0 0 0 0
04-09-2018 30.8 (16:10) 13 (00:00) 21.9 10.56 (17:30) 6.67 (17:40) 0 0 0 0 0
03-09-2018 33.1 (16:10) 16.7 (00:00) 24.9 11.94 (14:50) 6.39 (15:30) -- 0.8 0.4 -- 0
02-09-2018 34.2 (16:50) 14 (00:00) 24.1 9.17 (20:40) 6.11 (17:40) 0 0 0 0 0
01-09-2018 32 (17:50) 12.6 (00:00) 22.3 7.22 (19:50) 4.72 (20:30) 0 0 0 0 0
31-08-2018 31.6 (17:20) 13.7 (00:00) 22.7 8.61 (20:00) 5.56 (20:00) 0 0 0 0 0
30-08-2018 32.1 (17:40) 13.1 (00:00) 22.6 10.28 (20:20) 6.94 (18:40) 0 0 0 0 0
29-08-2018 30.8 (16:30) 16 (00:00) 23.4 10.28 (18:40) 5.83 (18:40) 0 0 0 0 0
28-08-2018 34 (16:40) 16.1 (00:00) 25.1 15.83 (15:20) 9.72 (15:20) 0 0 0 0 0
27-08-2018 35.3 (17:20) 13 (00:00) 24.1 11.39 (18:40) 7.5 (18:40) 0 0 0 0 0
26-08-2018 32 (17:30) 9.5 (00:00) 20.8 11.39 (16:20) 4.72 (14:30) 0 0 0 0 0
25-08-2018 29.7 (18:20) 10 (00:00) 19.9 9.17 (19:10) 5.83 (19:00) 0 0 0 0 0

Gráficas

Temp. máximas Temp. mínimas Temp. medias Precipitaciones Rachas de viento máximas Velocidades máximas media en intervalos de 10 minutos

Datos horarios

Fecha y hora oficial Temperatura (ºC) Velocidad del viento (km/h) Dirección del viento Racha (km/h) Dirección de racha Precipitación (mm) Presión (hPa) Tendencia (hPa) Humedad (%)
2018-09-23 23:00:00 21.9 12 Noroeste 35 Noroeste 0 -- -- 59
2018-09-23 22:00:00 23.9 13 Noroeste 24 Noroeste 0 -- -- 48
2018-09-23 21:00:00 25.5 7 Noroeste 23 Oeste 0 -- -- 28
2018-09-23 20:00:00 27.7 9 Oeste 23 Oeste 0 -- -- 25
2018-09-23 19:00:00 29.8 14 Oeste 27 Oeste 0 -- -- 24
2018-09-23 18:00:00 31.5 14 Noroeste 31 Oeste 0 -- -- 23
2018-09-23 17:00:00 32.2 8 Noroeste 19 Norte 0 -- -- 24
2018-09-23 16:00:00 32.7 8 Sudoeste 20 Sudoeste 0 -- -- 23
2018-09-23 15:00:00 30.9 6 Nordeste 17 Este 0 -- -- 31
2018-09-23 14:00:00 29.1 9 Nordeste 17 Nordeste 0 -- -- 36
2018-09-23 13:00:00 27 6 Nordeste 14 Nordeste 0 -- -- 42
2018-09-23 12:00:00 24.9 5 Este 11 Nordeste 0 -- -- 47
2018-09-23 11:00:00 23.2 3 Este 8 Nordeste 0 -- -- 51
2018-09-23 10:00:00 19.3 2 Sudeste 13 Sudoeste 0 -- -- 62
2018-09-23 09:00:00 15 11 Sudoeste 15 Sudoeste 0 -- -- 73
2018-09-23 08:00:00 13.4 11 Sudoeste 14 Sudoeste 0 -- -- 76
2018-09-23 07:00:00 13.3 12 Sudoeste 17 Sudoeste 0 -- -- 76
2018-09-23 06:00:00 13.6 8 Sudoeste 12 Sudoeste 0 -- -- 74
2018-09-23 05:00:00 14 5 Sudoeste 12 Sudoeste 0 -- -- 73
2018-09-23 04:00:00 15.1 5 Sudoeste 12 Sudoeste 0 -- -- 68
2018-09-23 03:00:00 15.6 9 Sudoeste 15 Sudoeste 0 -- -- 66
2018-09-23 02:00:00 15.9 5 Sudoeste 13 Sudoeste 0 -- -- 64
2018-09-23 01:00:00 16.7 6 Sudoeste 12 Sudoeste 0 -- -- 61
2018-09-23 00:00:00 17.4 5 Sudoeste 9 Sudoeste 0 -- -- 57
2018-09-22 23:00:00 19 2 Sudoeste 6 Norte 0 -- -- 50
2018-09-22 22:00:00 22 4 Norte 13 Norte 0 -- -- 44
2018-09-22 21:00:00 22.7 4 Sudoeste 10 Sudoeste 0 -- -- 36
2018-09-22 20:00:00 27.2 9 Oeste 15 Oeste 0 -- -- 27
2018-09-22 19:00:00 29.3 11 Oeste 20 Oeste 0 -- -- 23
2018-09-22 18:00:00 30.9 14 Oeste 24 Oeste 0 -- -- 23
2018-09-22 17:00:00 30.8 11 Noroeste 22 Oeste 0 -- -- 24
2018-09-22 16:00:00 31.6 11 Oeste 26 Oeste 0 -- -- 24
2018-09-22 15:00:00 30.6 13 Sudoeste 25 Oeste 0 -- -- 26
2018-09-22 14:00:00 29.1 7 Sudeste 12 Sudeste 0 -- -- 36
2018-09-22 13:00:00 26.5 4 Este 12 Este 0 -- -- 45
2018-09-22 12:00:00 23.2 8 Nordeste 14 Nordeste 0 -- -- 52
2018-09-22 11:00:00 21.6 5 Nordeste 9 Nordeste 0 -- -- 56
2018-09-22 10:00:00 17.9 2 Norte 6 Sudoeste 0 -- -- 67
2018-09-22 09:00:00 14 0 Calma 4 Nordeste 0 -- -- 80
2018-09-22 08:00:00 13 3 Noroeste 14 Oeste 0 -- -- 81
2018-09-22 07:00:00 13.2 10 Sudoeste 16 Sudoeste 0 -- -- 79
2018-09-22 06:00:00 13.2 10 Sudoeste 12 Sudoeste 0 -- -- 79
2018-09-22 05:00:00 13.5 8 Sudoeste 11 Sudoeste 0 -- -- 78
2018-09-22 04:00:00 13.8 4 Sudoeste 8 Sudoeste 0 -- -- 77
2018-09-22 03:00:00 14.5 3 Sur 5 Sur 0 -- -- 74
2018-09-22 02:00:00 15.5 0 Calma 4 Sur 0 -- -- 71
2018-09-22 01:00:00 16.8 0 Calma 4 Sur 0 -- -- 66
2018-09-22 00:00:00 18.7 0 Calma 6 Norte 0 -- -- 60
2018-09-21 23:00:00 20.8 7 Norte 17 Norte 0 -- -- 53
2018-09-21 22:00:00 22.2 8 Norte 17 Norte 0 -- -- 49
2018-09-21 21:00:00 23.2 5 Oeste 13 Oeste 0 -- -- 41
2018-09-21 20:00:00 25.7 5 Noroeste 16 Oeste 0 -- -- 36
2018-09-21 19:00:00 27.5 8 Oeste 28 Oeste 0 -- -- 34
2018-09-21 18:00:00 28.9 10 Oeste 23 Oeste 0 -- -- 32
2018-09-21 17:00:00 29.1 12 Oeste 26 Oeste 0 -- -- 32
2018-09-21 16:00:00 30.2 6 Nordeste 17 Oeste 0 -- -- 30
2018-09-21 15:00:00 29.9 5 Este 15 Nordeste 0 -- -- 31
2018-09-21 14:00:00 28.3 7 Nordeste 20 Oeste 0 -- -- 33
2018-09-21 13:00:00 27.7 5 Sudeste 17 Norte 0 -- -- 35
2018-09-21 12:00:00 25.6 6 Norte 15 Norte 0 -- -- 38
2018-09-21 11:00:00 24 5 Sur 12 Sudoeste 0 -- -- 43
2018-09-21 10:00:00 20.8 2 Oeste 8 Sudoeste 0 -- -- 56
2018-09-21 09:00:00 17.5 5 Sudoeste 21 Sudoeste 0 -- -- 66
2018-09-21 08:00:00 15.6 15 Oeste 18 Sudoeste 0 -- -- 71
2018-09-21 07:00:00 16.1 10 Oeste 17 Sudoeste 0 -- -- 69
2018-09-21 06:00:00 16.3 11 Sudoeste 18 Sudoeste 0 -- -- 68
2018-09-21 05:00:00 16.9 15 Oeste 20 Oeste 0 -- -- 65
2018-09-21 04:00:00 16.8 3 Sudoeste 17 Oeste 0 -- -- 65
2018-09-21 03:00:00 17.2 13 Oeste 18 Oeste 0 -- -- 63
2018-09-21 02:00:00 17 11 Sudoeste 19 Sudoeste 0 -- -- 61
2018-09-21 01:00:00 17.3 9 Sudoeste 13 Sudoeste 0 -- -- 62
2018-09-21 00:00:00 18.5 5 Oeste 11 Sur 0 -- -- 58
2018-09-20 23:00:00 19.7 7 Sudoeste 11 Sudoeste 0 -- -- 56
2018-09-20 22:00:00 21.2 5 Sur 10 Sudoeste 0 -- -- 54
2018-09-20 21:00:00 22.7 4 Oeste 14 Sudoeste 0 -- -- 48
2018-09-20 20:00:00 25.2 10 Sur 21 Sudoeste 0 -- -- 43
2018-09-20 19:00:00 27.1 18 Sudoeste 34 Oeste 0 -- -- 38
2018-09-20 18:00:00 29.1 21 Oeste 29 Oeste 0 -- -- 33
2018-09-20 17:00:00 31.6 16 Sur 28 Sur 0 -- -- 30
2018-09-20 16:00:00 31.3 13 Sudoeste 28 Sur 0 -- -- 32
2018-09-20 15:00:00 30.5 15 Sur 28 Sudoeste 0 -- -- 32
2018-09-20 14:00:00 30.2 10 Sur 26 Sur 0 -- -- 35
2018-09-20 13:00:00 27.1 8 Nordeste 13 Nordeste 0 -- -- 46
2018-09-20 12:00:00 24.7 4 Nordeste 11 Nordeste 0 -- -- 51
2018-09-20 11:00:00 22.5 6 Nordeste 11 Nordeste 0 -- -- 57
2018-09-20 10:00:00 19.6 2 Nordeste 5 Este 0 -- -- 65
2018-09-20 09:00:00 15.4 0 Calma 4 Sur 0 -- -- 79
2018-09-20 08:00:00 13.9 0 Calma 2 Sudoeste 0 -- -- 81
2018-09-20 07:00:00 14.6 0 Calma 6 Sudoeste 0 -- -- 78
2018-09-20 06:00:00 15.5 0 Calma 8 Oeste 0 -- -- 74
2018-09-20 05:00:00 16.5 8 Oeste 23 Oeste 0 -- -- 73
2018-09-20 04:00:00 16.6 15 Oeste 19 Oeste 0 -- -- 70
2018-09-20 03:00:00 16.4 8 Sudoeste 14 Oeste 0 -- -- 68
2018-09-20 02:00:00 16.1 9 Sudoeste 12 Oeste 0 -- -- 69
2018-09-20 01:00:00 16.8 9 Sudoeste 13 Sudoeste 0 -- -- 66
2018-09-20 00:00:00 18.3 2 Norte 13 Sudoeste 0 -- -- 62
2018-09-19 23:00:00 19.8 7 Sudoeste 12 Sudoeste 0 -- -- 58
2018-09-19 22:00:00 19.9 9 Sudoeste 13 Sudoeste 0 -- -- 56
2018-09-19 21:00:00 22.4 3 Sudoeste 5 Sudoeste 0 -- -- 53
2018-09-19 20:00:00 25.9 2 Sur 9 Nordeste 0 -- -- 45
2018-09-19 19:00:00 27.6 4 Este 12 Nordeste 0 -- -- 37
2018-09-19 18:00:00 28.9 4 Nordeste 18 Nordeste 0 -- -- 34
2018-09-19 17:00:00 29.6 7 Sudeste 15 Este 0 -- -- 33
2018-09-19 16:00:00 28.7 6 Nordeste 16 Nordeste 0 -- -- 35
2018-09-19 15:00:00 28.2 9 Nordeste 17 Este 0 -- -- 36
2018-09-19 14:00:00 26.8 6 Nordeste 12 Nordeste 0 -- -- 41
2018-09-19 13:00:00 24.6 6 Nordeste 12 Nordeste 0 -- -- 48
2018-09-19 12:00:00 22.7 6 Nordeste 12 Nordeste 0 -- -- 54
2018-09-19 11:00:00 20.1 7 Nordeste 11 Nordeste 0 -- -- 64
2018-09-19 10:00:00 17.6 5 Norte 12 Sudoeste 0 -- -- 71
2018-09-19 09:00:00 14.4 10 Sudoeste 13 Oeste 0 -- -- 82
2018-09-19 08:00:00 12.6 11 Sudoeste 13 Sudoeste 0 -- -- 85
2018-09-19 07:00:00 13.2 10 Oeste 15 Oeste 0 -- -- 84
2018-09-19 06:00:00 13.8 13 Oeste 18 Oeste 0 -- -- 83
2018-09-19 05:00:00 13.6 11 Sudoeste 15 Sudoeste 0 -- -- 82
2018-09-19 04:00:00 14.1 10 Sudoeste 17 Oeste 0 -- -- 79
2018-09-19 03:00:00 14.1 9 Sudoeste 12 Sudoeste 0 -- -- 80
2018-09-19 02:00:00 15.2 6 Sudoeste 18 Sudoeste 0 -- -- 76
2018-09-19 01:00:00 15.5 8 Sudoeste 14 Sudoeste 0 -- -- 76
2018-09-19 00:00:00 16.2 12 Sudoeste 16 Sudoeste 0 -- -- 75
2018-09-18 23:00:00 17.2 0 Calma 17 Sudoeste 0 -- -- 71
2018-09-18 22:00:00 17.4 7 Sudoeste 11 Sudoeste 0 -- -- 70
2018-09-18 21:00:00 19.3 3 Oeste 8 Norte 0 -- -- 66
2018-09-18 20:00:00 20.5 3 Noroeste 28 Este 0 -- -- 61
2018-09-18 19:00:00 22.1 16 Nordeste 30 Nordeste 0 -- -- 51
2018-09-18 18:00:00 24 12 Oeste 34 Norte 0 -- -- 47
2018-09-18 17:00:00 26.1 3 Norte 14 Oeste 0 -- -- 43
2018-09-18 16:00:00 27.2 3 Oeste 13 Oeste 0 -- -- 43
2018-09-18 15:00:00 27.2 4 Nordeste 23 Este 0 -- -- 46
2018-09-18 14:00:00 26.3 6 Sudeste 19 Sudoeste 0 -- -- 49
2018-09-18 13:00:00 25.3 5 Sur 18 Sudoeste 0 -- -- 51
2018-09-18 12:00:00 23.3 4 Nordeste 10 Este 0 -- -- 62
2018-09-18 11:00:00 20.8 5 Nordeste 10 Nordeste 0 -- -- 70
2018-09-18 10:00:00 18.3 4 Nordeste 8 Nordeste 0 -- -- 76
2018-09-18 09:00:00 15.5 4 Norte 9 Oeste 0 -- -- 87
2018-09-18 08:00:00 13.6 6 Sudoeste 9 Sudoeste 0 -- -- 90
2018-09-18 07:00:00 14 5 Sudoeste 11 Oeste 0 -- -- 89
2018-09-18 06:00:00 14 8 Sudoeste 12 Oeste 0 -- -- 88
2018-09-18 05:00:00 14.6 8 Oeste 12 Oeste 0 -- -- 86
2018-09-18 04:00:00 15.8 2 Oeste 9 Nordeste 0 -- -- 83
2018-09-18 03:00:00 16.7 2 Noroeste 26 Sudoeste 0 -- -- 75
2018-09-18 02:00:00 17 15 Sudoeste 25 Sudoeste 0 -- -- 74
2018-09-18 01:00:00 17.3 9 Oeste 18 Sudoeste 0 -- -- 76
2018-09-18 00:00:00 18 9 Sur 14 Sur 0 -- -- 80
2018-09-17 23:00:00 18.2 5 Sur 28 Noroeste 0 -- -- 81
2018-09-17 22:00:00 18.9 17 Noroeste 28 Noroeste 0 -- -- 76
2018-09-17 21:00:00 19.7 2 Noroeste 11 Norte 0 -- -- 71
2018-09-17 20:00:00 20.6 5 Nordeste 24 Nordeste 0 -- -- 75
2018-09-17 19:00:00 21.5 8 Nordeste 20 Norte 0 -- -- 68
2018-09-17 18:00:00 20.8 8 Este 36 Nordeste 4.8 -- -- 73
2018-09-17 17:00:00 26.2 22 Nordeste 34 Este 0 -- -- 43
2018-09-17 16:00:00 28.4 10 Nordeste 23 Nordeste 0 -- -- 36
2018-09-17 15:00:00 28.5 10 Nordeste 24 Nordeste 0 -- -- 38
2018-09-17 14:00:00 27.4 9 Nordeste 18 Este 0 -- -- 40
2018-09-17 13:00:00 26 5 Nordeste 15 Nordeste 0 -- -- 45
2018-09-17 12:00:00 24.3 7 Nordeste 13 Nordeste 0 -- -- 50
2018-09-17 11:00:00 21.7 7 Nordeste 11 Este 0 -- -- 55
2018-09-17 10:00:00 18.9 4 Este 7 Este 0 -- -- 63
2018-09-17 09:00:00 15.5 0 Calma 3 Nordeste 0 -- -- 76
2018-09-17 08:00:00 14.7 0 Calma 6 Nordeste 0 -- -- 75
2018-09-17 07:00:00 15.2 4 Nordeste 7 Nordeste 0 -- -- 74
2018-09-17 06:00:00 15.4 2 Este 8 Oeste 0 -- -- 73
2018-09-17 05:00:00 15.7 6 Sudoeste 10 Sudoeste 0 -- -- 71
2018-09-17 04:00:00 15.4 4 Sur 13 Sudoeste 0 -- -- 70
2018-09-17 03:00:00 16 6 Sudoeste 14 Sur 0 -- -- 68
2018-09-17 02:00:00 16.5 8 Sudoeste 15 Sudoeste 0 -- -- 66
2018-09-17 01:00:00 16.9 9 Sudoeste 14 Sudoeste 0 -- -- 64
2018-09-17 00:00:00 17.8 8 Sudoeste 13 Sudoeste 0 -- -- 60
2018-09-16 23:00:00 19.8 3 Sudoeste 9 Norte 0 -- -- 56
2018-09-16 22:00:00 22.4 4 Norte 9 Norte 0 -- -- 46
2018-09-16 21:00:00 24 5 Norte 13 Este 0 -- -- 43
2018-09-16 20:00:00 26.5 0 Calma 9 Este 0 -- -- 36
2018-09-16 19:00:00 28.1 7 Este 19 Nordeste 0 -- -- 31
2018-09-16 18:00:00 29.1 5 Este 15 Este 0 -- -- 32
2018-09-16 17:00:00 29.7 3 Este 14 Sudeste 0 -- -- 33
2018-09-16 16:00:00 28.6 4 Sudeste 18 Este 0 -- -- 37
2018-09-16 15:00:00 29.3 6 Este 21 Nordeste 0 -- -- 35
2018-09-16 14:00:00 28.2 4 Sur 15 Este 0 -- -- 42
2018-09-16 13:00:00 27.4 5 Sudeste 14 Este 0 -- -- 45
2018-09-16 12:00:00 25.7 4 Sudeste 17 Sudoeste 0 -- -- 48
2018-09-16 11:00:00 23.1 7 Sudoeste 16 Sudoeste 0 -- -- 56
2018-09-16 10:00:00 20.3 10 Sudoeste 15 Sudoeste 0 -- -- 65
2018-09-16 09:00:00 16.9 4 Sudoeste 6 Sudoeste 0 -- -- 77
2018-09-16 08:00:00 15.1 2 Nordeste 7 Sur 0 -- -- 78
2018-09-16 07:00:00 15.1 4 Sudoeste 12 Sur 0 -- -- 79
2018-09-16 06:00:00 15.4 6 Sudoeste 10 Oeste 0 -- -- 78
2018-09-16 05:00:00 15.9 6 Sudoeste 15 Sudoeste 0 -- -- 76
2018-09-16 04:00:00 16.3 8 Sudoeste 19 Sudoeste 0 -- -- 74
2018-09-16 03:00:00 17.7 12 Sudoeste 17 Sudoeste 0 -- -- 69
2018-09-16 02:00:00 18.5 15 Sudoeste 21 Sudoeste 0 -- -- 68
2018-09-16 01:00:00 18.6 12 Sudoeste 19 Sudoeste 0 -- -- 67
2018-09-16 00:00:00 18.4 7 Sudoeste 14 Sudoeste 0 -- -- 68
2018-09-15 23:00:00 19.2 4 Sudoeste 14 Sur 0 -- -- 67
2018-09-15 22:00:00 21.1 4 Sur 13 Nordeste 0 -- -- 59
2018-09-15 21:00:00 22.8 8 Nordeste 19 Nordeste 0 -- -- 53
2018-09-15 20:00:00 24.8 14 Nordeste 28 Nordeste 0 -- -- 48
2018-09-15 19:00:00 26.9 13 Nordeste 24 Nordeste 0 -- -- 38
2018-09-15 18:00:00 28 11 Nordeste 23 Nordeste 0 -- -- 35
2018-09-15 17:00:00 27.9 13 Nordeste 23 Nordeste 0 -- -- 33
2018-09-15 16:00:00 27.1 12 Nordeste 23 Nordeste 0 -- -- 44
2018-09-15 15:00:00 26.5 10 Nordeste 21 Nordeste 0 -- -- 49
2018-09-15 14:00:00 25.1 10 Nordeste 18 Nordeste 0 -- -- 54
2018-09-15 13:00:00 22.9 9 Nordeste 18 Nordeste 0 -- -- 58
2018-09-15 12:00:00 21.3 9 Nordeste 16 Nordeste 0 -- -- 62
2018-09-15 11:00:00 19.5 7 Nordeste 12 Nordeste 0 -- -- 68
2018-09-15 10:00:00 17.5 4 Nordeste 7 Nordeste 0 -- -- 77
2018-09-15 09:00:00 13 5 Sudoeste 9 Sudoeste 0 -- -- 90
2018-09-15 08:00:00 12.4 5 Sudoeste 8 Sudoeste 0 -- -- 88
2018-09-15 07:00:00 12.7 3 Sudoeste 10 Sudoeste 0 -- -- 87
2018-09-15 06:00:00 13.1 4 Sudoeste 5 Sudoeste 0 -- -- 85
2018-09-15 05:00:00 13.4 0 Calma 8 Sudoeste 0 -- -- 85
2018-09-15 04:00:00 14.2 3 Este 9 Sudoeste 0 -- -- 83
2018-09-15 03:00:00 14.6 4 Sur 7 Sudoeste 0 -- -- 81
2018-09-15 02:00:00 15.4 0 Calma 5 Sudoeste 0 -- -- 78
2018-09-15 01:00:00 16.8 0 Calma 3 Oeste 0 -- -- 73
2018-09-15 00:00:00 18.5 2 Sudoeste 16 Norte 0 -- -- 66
2018-09-14 23:00:00 20.6 8 Norte 20 Norte 0 -- -- 59
2018-09-14 22:00:00 21.8 12 Norte 22 Norte 0 -- -- 54
2018-09-14 21:00:00 23.2 10 Norte 18 Nordeste 0 -- -- 50
2018-09-14 20:00:00 25.7 9 Nordeste 26 Nordeste 0 -- -- 40
2018-09-14 19:00:00 27.8 6 Nordeste 14 Nordeste 0 -- -- 31
2018-09-14 18:00:00 29 9 Nordeste 18 Nordeste 0 -- -- 30
2018-09-14 17:00:00 28.3 7 Nordeste 15 Norte 0 -- -- 34
2018-09-14 16:00:00 29.1 6 Norte 18 Nordeste 0 -- -- 38
2018-09-14 15:00:00 27.9 8 Nordeste 17 Este 0 -- -- 41
2018-09-14 14:00:00 26.5 11 Nordeste 18 Este 0 -- -- 50
2018-09-14 13:00:00 24 9 Nordeste 15 Nordeste 0 -- -- 58
2018-09-14 12:00:00 22.8 7 Nordeste 12 Este 0 -- -- 61
2018-09-14 11:00:00 20.6 4 Norte 7 Norte 0 -- -- 65
2018-09-14 10:00:00 17.7 2 Nordeste 6 Sur 0 -- -- 75
2018-09-14 09:00:00 13.9 5 Sur 10 Sudoeste 0 -- -- 89
2018-09-14 08:00:00 12 8 Sudoeste 10 Sudoeste 0 -- -- 90
2018-09-14 07:00:00 12.5 7 Sudoeste 10 Sudoeste 0 -- -- 89
2018-09-14 06:00:00 13.1 7 Sudoeste 11 Sudoeste 0 -- -- 88
2018-09-14 05:00:00 13.7 6 Sudoeste 9 Sudoeste 0 -- -- 86
2018-09-14 04:00:00 14.3 6 Sudoeste 9 Oeste 0 -- -- 87
2018-09-14 03:00:00 14.8 6 Sudoeste 12 Sudoeste 0 -- -- 84
2018-09-14 02:00:00 15.4 4 Sudoeste 8 Sudoeste 0 -- -- 83
2018-09-14 01:00:00 16.5 2 Sur 6 Sudoeste 0 -- -- 80
2018-09-14 00:00:00 17.8 3 Sudoeste 4 Sudoeste 0 -- -- 75
2018-09-13 23:00:00 19.8 0 Calma 9 Norte 0 -- -- 66
2018-09-13 22:00:00 21.3 6 Nordeste 13 Norte 0 -- -- 63
2018-09-13 21:00:00 22.8 8 Norte 24 Norte 0 -- -- 58
2018-09-13 20:00:00 25.7 10 Norte 15 Norte 0 -- -- 51
2018-09-13 19:00:00 27.9 6 Nordeste 14 Nordeste 0 -- -- 35
2018-09-13 18:00:00 28.8 8 Nordeste 18 Nordeste 0 -- -- 35
2018-09-13 17:00:00 29.1 6 Nordeste 17 Sur 0 -- -- 37
2018-09-13 16:00:00 28.7 7 Nordeste 18 Nordeste 0 -- -- 37
2018-09-13 15:00:00 27.7 11 Este 19 Este 0 -- -- 41
2018-09-13 14:00:00 26.6 12 Nordeste 19 Nordeste 0 -- -- 44
2018-09-13 13:00:00 25.8 8 Nordeste 15 Nordeste 0 -- -- 47
2018-09-13 12:00:00 24.3 4 Nordeste 13 Nordeste 0 -- -- 52
2018-09-13 11:00:00 22.4 6 Nordeste 10 Este 0 -- -- 61
2018-09-13 10:00:00 18.6 7 Oeste 14 Oeste 0 -- -- 78
2018-09-13 09:00:00 14.9 11 Sudoeste 18 Oeste 0 -- -- 86
2018-09-13 08:00:00 13.2 11 Sudoeste 14 Sudoeste 0 -- -- 89
2018-09-13 07:00:00 13.6 12 Sudoeste 15 Sudoeste 0 -- -- 87
2018-09-13 06:00:00 14 10 Sudoeste 15 Sudoeste 0 -- -- 86
2018-09-13 05:00:00 13.8 11 Sudoeste 13 Sudoeste 0 -- -- 89
2018-09-13 04:00:00 14.3 10 Sudoeste 12 Sudoeste 0 -- -- 86
2018-09-13 03:00:00 14.8 6 Sudoeste 12 Sudoeste 0 -- -- 86
2018-09-13 02:00:00 15.6 9 Sudoeste 13 Sudoeste 0 -- -- 83
2018-09-13 01:00:00 16.2 9 Sudoeste 13 Sudoeste 0 -- -- 82
2018-09-13 00:00:00 17 8 Sudoeste 11 Sudoeste 0 -- -- 80
2018-09-12 23:00:00 17.6 5 Sudoeste 9 Sudoeste 0 -- -- 81
2018-09-12 22:00:00 19.2 0 Calma 8 Sur 0 -- -- 76
2018-09-12 21:00:00 20.9 4 Sudoeste 6 Sudoeste 0 -- -- 70
2018-09-12 20:00:00 22.9 3 Este 6 Norte 0 -- -- 57
2018-09-12 19:00:00 23.1 5 Sudeste 18 Norte 0 -- -- 58
2018-09-12 18:00:00 23 12 Norte 35 Noroeste 0.4 -- -- 55
2018-09-12 17:00:00 26.5 4 Este 14 Sudeste 0 -- -- 39
2018-09-12 16:00:00 25.4 3 Nordeste 18 Oeste 0 -- -- 43
2018-09-12 15:00:00 26.5 6 Noroeste -- -- -- -- -- 43
2018-09-12 14:00:00 25.4 8 Oeste 20 Sudoeste 0.2 -- -- 50
2018-09-12 13:00:00 24.2 5 Sur 15 Oeste 0 -- -- 57
2018-09-12 12:00:00 22 8 Sudoeste 18 Sudoeste 0 -- -- 66
2018-09-12 11:00:00 19.9 2 Nordeste 13 Sudoeste 0 -- -- 75
2018-09-12 10:00:00 17.1 10 Sudoeste 15 Sudoeste 0 -- -- 88
2018-09-12 09:00:00 15.4 11 Sudoeste 15 Sudoeste 0 -- -- 92
2018-09-12 08:00:00 15.3 2 Sudeste 9 Sur 0 -- -- 93
2018-09-12 07:00:00 15.5 4 Oeste 9 Norte 1 -- -- 93
2018-09-12 06:00:00 15.6 3 Norte 9 Norte 4.2 -- -- 93
2018-09-12 05:00:00 15.6 4 Oeste 12 Oeste 1.8 -- -- 92
2018-09-12 04:00:00 16 7 Sudoeste 13 Oeste 1.6 -- -- 91
2018-09-12 03:00:00 16.2 7 Sur 12 Noroeste 0.2 -- -- 90
2018-09-12 02:00:00 16.3 7 Este 15 Nordeste 0.6 -- -- 88
2018-09-12 01:00:00 16.5 10 Oeste 14 Oeste 0 -- -- 86
2018-09-12 00:00:00 16.5 4 Sudoeste 9 Sudoeste 0 -- -- 86
2018-09-11 23:00:00 17.3 6 Sudoeste 10 Sur 0 -- -- 84
2018-09-11 22:00:00 17.8 4 Sudoeste 6 Sudoeste 0 -- -- 84
2018-09-11 21:00:00 18.4 0 Calma 5 Sur 0 -- -- 80
2018-09-11 20:00:00 18.8 3 Sur 12 Sudeste 0 -- -- 78
2018-09-11 19:00:00 19.6 4 Noroeste 10 Noroeste 0.2 -- -- 75
2018-09-11 18:00:00 19.2 5 Sur 17 Sudeste 0 -- -- 73
2018-09-11 17:00:00 19.8 5 Sudeste 24 Nordeste 0 -- -- 64
2018-09-11 16:00:00 22.9 15 Nordeste 36 Nordeste 0 -- -- 58
2018-09-11 15:00:00 25.3 13 Nordeste 26 Nordeste 0 -- -- 47
2018-09-11 14:00:00 23.5 13 Nordeste 25 Nordeste 0 -- -- 53
2018-09-11 13:00:00 23.2 10 Nordeste 23 Nordeste 0 -- -- 57
2018-09-11 12:00:00 22.2 8 Nordeste 14 Nordeste 0 -- -- 59
2018-09-11 11:00:00 20.5 4 Norte 9 Norte 0 -- -- 67
2018-09-11 10:00:00 17.2 2 Sudoeste 10 Sudoeste 0 -- -- 81
2018-09-11 09:00:00 14 9 Sudoeste 13 Sudoeste 0 -- -- 89
2018-09-11 08:00:00 12.7 10 Sudoeste 13 Sudoeste 0 -- -- 91
2018-09-11 07:00:00 12.8 9 Sudoeste 13 Sudoeste 0 -- -- 89
2018-09-11 06:00:00 13.2 9 Sudoeste 11 Sudoeste 0 -- -- 88
2018-09-11 05:00:00 13.7 5 Sudoeste 12 Sudoeste 0 -- -- 87
2018-09-11 04:00:00 14.2 6 Sudoeste 10 Sudoeste 0 -- -- 86
2018-09-11 03:00:00 14.3 4 Sur 12 Sudoeste 0 -- -- 85
2018-09-11 02:00:00 15 8 Sudoeste 9 Sudoeste 0 -- -- 83
2018-09-11 01:00:00 15.6 7 Sudoeste 10 Sudoeste 0 -- -- 81
2018-09-11 00:00:00 16.3 3 Sur 6 Sur 0 -- -- 78
2018-09-10 23:00:00 18.1 2 Este 6 Sur 0 -- -- 72
2018-09-10 22:00:00 19.8 0 Calma 6 Nordeste 0 -- -- 65
2018-09-10 21:00:00 21.6 4 Nordeste 13 Nordeste 0 -- -- 57
2018-09-10 20:00:00 23.4 7 Nordeste 23 Nordeste 0 -- -- 52
2018-09-10 19:00:00 24.1 14 Nordeste 24 Nordeste 0 -- -- 50
2018-09-10 18:00:00 25.1 12 Nordeste 24 Nordeste 0 -- -- 48
2018-09-10 17:00:00 25.1 10 Nordeste 25 Nordeste 0 -- -- 49
2018-09-10 16:00:00 24.6 13 Nordeste 24 Nordeste 0 -- -- 52
2018-09-10 15:00:00 23.6 10 Nordeste -- -- -- -- -- 56
2018-09-10 14:00:00 -- -- -- -- -- -- -- -- --
2018-09-10 13:00:00 -- -- -- -- -- -- -- -- --
2018-09-10 12:00:00 -- -- -- -- -- -- -- -- --
2018-09-10 11:00:00 -- -- -- -- -- -- -- -- --
2018-09-10 10:00:00 -- -- -- -- -- -- -- -- --
2018-09-10 09:00:00 -- -- -- -- -- -- -- -- --
2018-09-10 08:00:00 -- -- -- -- -- -- -- -- --
2018-09-10 07:00:00 -- -- -- -- -- -- -- -- --
2018-09-10 06:00:00 -- -- -- -- -- -- -- -- --
2018-09-10 05:00:00 -- -- -- -- -- -- -- -- --
2018-09-10 04:00:00 -- -- -- -- -- -- -- -- --
2018-09-10 03:00:00 -- -- -- -- -- -- -- -- --
2018-09-10 02:00:00 -- -- -- -- -- -- -- -- --
2018-09-10 01:00:00 -- -- -- -- -- -- -- -- --
2018-09-10 00:00:00 -- -- -- -- -- -- -- -- --
2018-09-09 23:00:00 -- -- -- -- -- -- -- -- --
2018-09-09 22:00:00 -- -- -- -- -- -- -- -- --
2018-09-09 21:00:00 -- -- -- -- -- -- -- -- --
2018-09-09 20:00:00 -- -- -- -- -- -- -- -- --
2018-09-09 19:00:00 -- -- -- -- -- -- -- -- --
2018-09-09 18:00:00 -- -- -- -- -- -- -- -- --
2018-09-09 17:00:00 -- -- -- -- -- -- -- -- --
2018-09-09 16:00:00 -- -- -- -- -- -- -- -- --
2018-09-09 15:00:00 -- -- -- -- -- -- -- -- --
2018-09-09 14:00:00 -- -- -- -- -- -- -- -- --
2018-09-09 13:00:00 -- -- -- -- -- -- -- -- --
2018-09-09 12:00:00 -- -- -- -- -- -- -- -- --
2018-09-09 11:00:00 -- -- -- -- -- -- -- -- --
2018-09-09 10:00:00 -- -- -- -- -- -- -- -- --
2018-09-09 09:00:00 -- -- -- -- -- -- -- -- --
2018-09-09 08:00:00 -- -- -- -- -- -- -- -- --
2018-09-09 07:00:00 -- -- -- -- -- -- -- -- --
2018-09-09 06:00:00 -- -- -- -- -- -- -- -- --
2018-09-09 05:00:00 -- -- -- -- -- -- -- -- --
2018-09-09 04:00:00 -- -- -- -- -- -- -- -- --
2018-09-09 03:00:00 -- -- -- -- -- -- -- -- --
2018-09-09 02:00:00 -- -- -- -- -- -- -- -- --
2018-09-09 01:00:00 -- -- -- -- -- -- -- -- --
2018-09-09 00:00:00 -- -- -- -- -- -- -- -- --
2018-09-08 23:00:00 -- -- -- -- -- -- -- -- --
2018-09-08 22:00:00 -- -- -- -- -- -- -- -- --
2018-09-08 21:00:00 -- -- -- -- -- -- -- -- --
2018-09-08 20:00:00 -- -- -- -- -- -- -- -- --
2018-09-08 19:00:00 -- -- -- -- -- -- -- -- --
2018-09-08 18:00:00 -- -- -- -- -- -- -- -- --
2018-09-08 17:00:00 -- -- -- -- -- -- -- -- --
2018-09-08 16:00:00 -- -- -- -- -- -- -- -- --
2018-09-08 15:00:00 -- -- -- -- -- -- -- -- --
2018-09-08 14:00:00 25.9 17 Sur 29 Sur 0 -- -- 45
2018-09-08 13:00:00 22.2 6 Este 13 Nordeste 0.2 -- -- 65
2018-09-08 12:00:00 20.3 2 Sur 8 Sur 0 -- -- 71
2018-09-08 11:00:00 18.1 3 Sur 8 Noroeste 0 -- -- 82
2018-09-08 10:00:00 16.6 4 Noroeste 12 Noroeste 0 -- -- 88
2018-09-08 09:00:00 14.5 3 Oeste 9 Sur 0 -- -- 93
2018-09-08 08:00:00 13.5 3 Noroeste 9 Oeste 0 -- -- 92
2018-09-08 07:00:00 14.1 6 Sudoeste 9 Oeste 0 -- -- 91
2018-09-08 06:00:00 14.5 6 Sur 13 Sudoeste 0 -- -- 91
2018-09-08 05:00:00 15.1 9 Oeste 12 Sudoeste 0 -- -- 91
2018-09-08 04:00:00 15.7 3 Norte 7 Este 0 -- -- 91
2018-09-08 03:00:00 15.9 5 Sur 16 Sudoeste 0 -- -- 90
2018-09-08 02:00:00 16.5 3 Este 9 Norte 1.2 -- -- 88
2018-09-08 01:00:00 16.8 8 Sudoeste 15 Oeste 2.4 -- -- 86
2018-09-08 00:00:00 17.8 8 Sur 12 Sudoeste 0.4 -- -- 82
2018-09-07 23:00:00 18.9 6 Nordeste 14 Nordeste 0 -- -- 70
2018-09-07 22:00:00 18.9 9 Norte 16 Norte 0 -- -- 70
2018-09-07 21:00:00 19.5 9 Norte 22 Nordeste 0 -- -- 66
2018-09-07 20:00:00 20.5 10 Nordeste 19 Sudoeste 0 -- -- 64
2018-09-07 19:00:00 21.8 12 Este 29 Este 0 -- -- 61
2018-09-07 18:00:00 25.8 13 Nordeste 22 Nordeste 0 -- -- 41
2018-09-07 17:00:00 25.7 11 Nordeste 21 Nordeste 0 -- -- 42
2018-09-07 16:00:00 25.1 10 Nordeste 17 Nordeste 0 -- -- 45
2018-09-07 15:00:00 24 11 Nordeste 20 Este 0 -- -- 49
2018-09-07 14:00:00 22.3 9 Nordeste 24 Nordeste 0 -- -- 55
2018-09-07 13:00:00 21 7 Norte 18 Nordeste 0 -- -- 61
2018-09-07 12:00:00 19.2 8 Nordeste 16 Este 0 -- -- 65
2018-09-07 11:00:00 17.9 6 Nordeste 9 Nordeste 0 -- -- 71
2018-09-07 10:00:00 15.1 2 Sudeste 5 Sur 0 -- -- 82
2018-09-07 09:00:00 12.4 3 Sur 9 Sudoeste 0 -- -- 91
2018-09-07 08:00:00 11.2 5 Sudoeste 7 Sudoeste 0 -- -- 92
2018-09-07 07:00:00 11.3 0 Calma 5 Sur 0 -- -- 91
2018-09-07 06:00:00 11.9 2 Sudoeste 5 Sur 0 -- -- 91
2018-09-07 05:00:00 12.4 2 Sudoeste 7 Sudeste 0 -- -- 90
2018-09-07 04:00:00 12.6 2 Sur 5 Oeste 0 -- -- 89
2018-09-07 03:00:00 13.4 2 Noroeste 6 Noroeste 0 -- -- 85
2018-09-07 02:00:00 14.3 2 Nordeste 6 Norte 0 -- -- 84
2018-09-07 01:00:00 14.5 2 Este 14 Noroeste 0 -- -- 85
2018-09-07 00:00:00 15.1 0 Calma 5 Oeste 0 -- -- 89
2018-09-06 23:00:00 15.6 3 Sur 5 Noroeste 0 -- -- 89
2018-09-06 22:00:00 16.5 2 Sudeste 4 Sudoeste 0 -- -- 88
2018-09-06 21:00:00 16.6 2 Oeste 5 Nordeste 0 -- -- 87
2018-09-06 20:00:00 16.8 5 Norte 7 Norte 0.2 -- -- 86
2018-09-06 19:00:00 16.8 3 Sudeste 8 Sudeste 0 -- -- 87
2018-09-06 18:00:00 16.5 6 Sur 16 Sur 6.4 -- -- 87
2018-09-06 17:00:00 18.5 17 Sudoeste 28 Oeste 3.8 -- -- 76
2018-09-06 16:00:00 25.1 8 Nordeste 19 Este 0 -- -- 41
2018-09-06 15:00:00 24.6 7 Este 19 Este 0 -- -- 44
2018-09-06 14:00:00 23.2 11 Nordeste 21 Este 0 -- -- 50
2018-09-06 13:00:00 21.5 9 Nordeste 19 Nordeste 0 -- -- 56
2018-09-06 12:00:00 20 12 Nordeste 22 Nordeste 0 -- -- 61
2018-09-06 11:00:00 17.7 10 Norte 20 Norte 0 -- -- 73
2018-09-06 10:00:00 14.8 3 Nordeste 6 Este 0 -- -- 84
2018-09-06 09:00:00 12.8 3 Sur 6 Sur 0 -- -- 87
2018-09-06 08:00:00 11.5 5 Sudoeste 9 Sudoeste 0 -- -- 87
2018-09-06 07:00:00 12.3 7 Sudoeste 10 Sudoeste 0 -- -- 85
2018-09-06 06:00:00 13.2 0 Calma 4 Sudoeste 0 -- -- 82
2018-09-06 05:00:00 14.6 0 Calma 8 Noroeste 0 -- -- 80
2018-09-06 04:00:00 15.8 0 Calma 7 Nordeste 0 -- -- 76
2018-09-06 03:00:00 15.8 0 Calma 11 Sudoeste 0 -- -- 77
2018-09-06 02:00:00 15.7 4 Sudoeste 6 Sudoeste 0 -- -- 77
2018-09-06 01:00:00 16.6 2 Sur 9 Norte 0 -- -- 73
2018-09-06 00:00:00 17.9 6 Nordeste 13 Norte 0 -- -- 71
2018-09-05 23:00:00 19 0 Calma 16 Norte 0 -- -- 67
2018-09-05 22:00:00 20.4 3 Nordeste 27 Oeste 0 -- -- 57
2018-09-05 21:00:00 21.5 22 Oeste 30 Oeste 0 -- -- 47
2018-09-05 20:00:00 25.2 8 Sur 31 Sur 0 -- -- 34
2018-09-05 19:00:00 26.5 16 Sur 34 Sur 0 -- -- 32
2018-09-05 18:00:00 28.3 21 Sur 38 Sur 0 -- -- 26
2018-09-05 17:00:00 28.8 24 Sudoeste 38 Sur 0 -- -- 26
2018-09-05 16:00:00 28.8 23 Sur 41 Sur 0 -- -- 25
2018-09-05 15:00:00 28.4 17 Sur 39 Sur 0 -- -- 29
2018-09-05 14:00:00 27.7 21 Sur 40 Sudoeste 0 -- -- 32
2018-09-05 13:00:00 26.3 19 Sur 32 Sur 0 -- -- 40
2018-09-05 12:00:00 23.9 7 Nordeste 13 Nordeste 0 -- -- 54
2018-09-05 11:00:00 20.8 4 Nordeste 12 Nordeste 0 -- -- 64
2018-09-05 10:00:00 18.8 6 Norte 11 Norte 0 -- -- 71
2018-09-05 09:00:00 15.1 0 Calma 5 Sudoeste 0 -- -- 80
2018-09-05 08:00:00 12.3 2 Sudoeste 7 Sudoeste 0 -- -- 83
2018-09-05 07:00:00 12.3 4 Sudoeste 5 Sudoeste 0 -- -- 81
2018-09-05 06:00:00 12.4 3 Sur 7 Sur 0 -- -- 80
2018-09-05 05:00:00 13.2 0 Calma 3 Sudoeste 0 -- -- 77
2018-09-05 04:00:00 13.8 3 Sur 11 Sudoeste 0 -- -- 76
2018-09-05 03:00:00 14.3 3 Sudoeste 8 Sudoeste 0 -- -- 74
2018-09-05 02:00:00 15.3 3 Sudoeste 6 Sudoeste 0 -- -- 71
2018-09-05 01:00:00 16.9 4 Sudoeste 6 Este 0 -- -- 67
2018-09-05 00:00:00 18.8 6 Nordeste 30 Noroeste 0 -- -- 63
2018-09-04 23:00:00 19.7 21 Noroeste 37 Noroeste 0 -- -- 61
2018-09-04 22:00:00 21.5 6 Norte 12 Nordeste 0 -- -- 54
2018-09-04 21:00:00 22.9 8 Nordeste 22 Nordeste 0 -- -- 52
2018-09-04 20:00:00 24 11 Norte 32 Nordeste 0 -- -- 49
2018-09-04 19:00:00 25.9 17 Nordeste 28 Nordeste 0 -- -- 42
2018-09-04 18:00:00 26.9 18 Nordeste 38 Nordeste 0 -- -- 41
2018-09-04 17:00:00 30.3 12 Sudeste 26 Sudeste 0 -- -- 29
2018-09-04 16:00:00 30.3 15 Sur 28 Sur 0 -- -- 31
2018-09-04 15:00:00 29.4 9 Este 19 Este 0 -- -- 35
2018-09-04 14:00:00 27.5 5 Nordeste 16 Nordeste 0 -- -- 41
2018-09-04 13:00:00 26.3 9 Nordeste 17 Este 0 -- -- 46
2018-09-04 12:00:00 24 10 Este 15 Nordeste 0 -- -- 51
2018-09-04 11:00:00 22 7 Nordeste 12 Nordeste 0 -- -- 56
2018-09-04 10:00:00 19.4 3 Nordeste 8 Sur 0 -- -- 63
2018-09-04 09:00:00 15.1 4 Sudoeste 9 Sur 0 -- -- 78
2018-09-04 08:00:00 13 4 Sudoeste 7 Sudoeste 0 -- -- 82
2018-09-04 07:00:00 13.3 3 Sudoeste 7 Sudoeste 0 -- -- 81
2018-09-04 06:00:00 14 4 Sudoeste 13 Sudoeste 0 -- -- 80
2018-09-04 05:00:00 14.7 5 Sudoeste 11 Oeste 0 -- -- 78
2018-09-04 04:00:00 15.6 4 Sudoeste 10 Sudoeste 0 -- -- 77
2018-09-04 03:00:00 16.4 5 Sudoeste 12 Sudoeste 0 -- -- 73
2018-09-04 02:00:00 17.5 8 Sudoeste 12 Sudoeste 0 -- -- 70
2018-09-04 01:00:00 18.3 5 Sudoeste 10 Sur 0 -- -- 66
2018-09-04 00:00:00 19.8 6 Oeste 12 Nordeste 0 -- -- 62
2018-09-03 23:00:00 22.3 10 Norte 24 Norte 0 -- -- 55
2018-09-03 22:00:00 23 0 Calma 24 Norte 0 -- -- 52
2018-09-03 21:00:00 24.3 12 Nordeste 31 Nordeste 0 -- -- 49
2018-09-03 20:00:00 25.8 21 Nordeste 34 Norte 0 -- -- 43
2018-09-03 19:00:00 31.3 9 Sur 26 Sur 0 -- -- 20
2018-09-03 18:00:00 32.2 9 Sudeste 29 Sudoeste 0 -- -- 26
2018-09-03 17:00:00 32.3 17 Sur 38 Sudoeste 0 -- -- 26
2018-09-03 16:00:00 33 15 Sur 40 Sudoeste 0 -- -- 22
2018-09-03 15:00:00 32.2 20 Sur -- -- -- -- -- 22
2018-09-03 14:00:00 30.2 12 Nordeste 24 Nordeste 0 -- -- 37
2018-09-03 13:00:00 28.4 9 Norte 16 Norte 0.2 -- -- 42
2018-09-03 12:00:00 25.4 4 Norte 11 Norte 0 -- -- 47
2018-09-03 11:00:00 21 4 Oeste 15 Norte 0 -- -- 65
2018-09-03 10:00:00 21 6 Sudeste 18 Sur 0 -- -- 66
2018-09-03 09:00:00 18 6 Sur 20 Sudoeste 0 -- -- 78
2018-09-03 08:00:00 16.7 0 Calma 14 Sudoeste 0.4 -- -- 81
2018-09-03 07:00:00 17.5 5 Sur 13 Norte 0 -- -- 78
2018-09-03 06:00:00 18.7 4 Sur 33 Oeste 0.8 -- -- 72
2018-09-03 05:00:00 19.2 9 Norte 19 Noroeste 0 -- -- 56
2018-09-03 04:00:00 19.4 6 Norte 19 Oeste 0 -- -- 50
2018-09-03 03:00:00 17.5 6 Sudoeste 10 Sudoeste 0 -- -- 56
2018-09-03 02:00:00 18.6 4 Sudoeste 9 Oeste 0 -- -- 54
2018-09-03 01:00:00 19.8 0 Calma 6 Sur 0 -- -- 51
2018-09-03 00:00:00 21.1 0 Calma 6 Sur 0 -- -- 46
2018-09-02 23:00:00 24.1 2 Nordeste 14 Nordeste 0 -- -- 40
2018-09-02 22:00:00 25.5 10 Nordeste 25 Nordeste 0 -- -- 39
2018-09-02 21:00:00 26.9 19 Nordeste 33 Nordeste 0 -- -- 37
2018-09-02 20:00:00 29.8 8 Oeste 19 Sudoeste 0 -- -- 29
2018-09-02 19:00:00 31.7 8 Oeste 27 Oeste 0 -- -- 26
2018-09-02 18:00:00 32.3 18 Oeste 32 Oeste 0 -- -- 24
2018-09-02 17:00:00 34.2 10 Sudoeste 24 Sudoeste 0 -- -- 24
2018-09-02 16:00:00 33 12 Oeste 28 Sudoeste 0 -- -- 26
2018-09-02 15:00:00 31.8 3 Nordeste 16 Nordeste 0 -- -- 32
2018-09-02 14:00:00 30.5 6 Nordeste 12 Este 0 -- -- 36
2018-09-02 13:00:00 28.2 7 Nordeste 13 Nordeste 0 -- -- 40
2018-09-02 12:00:00 25.9 8 Nordeste 13 Nordeste 0 -- -- 41
2018-09-02 11:00:00 23.8 5 Nordeste 11 Nordeste 0 -- -- 44
2018-09-02 10:00:00 21.6 3 Este 6 Este 0 -- -- 49
2018-09-02 09:00:00 16.9 3 Sur 9 Sudoeste 0 -- -- 61
2018-09-02 08:00:00 14.1 6 Sudoeste 13 Sudoeste 0 -- -- 68
2018-09-02 07:00:00 14.5 4 Sur 14 Sudoeste 0 -- -- 66
2018-09-02 06:00:00 14.8 6 Sudoeste 10 Sudoeste 0 -- -- 65
2018-09-02 05:00:00 15.1 7 Sudoeste 9 Sudoeste 0 -- -- 63
2018-09-02 04:00:00 15.7 6 Sudoeste 11 Sudoeste 0 -- -- 61
2018-09-02 03:00:00 16.2 5 Sudoeste 10 Sudoeste 0 -- -- 60
2018-09-02 02:00:00 16.9 4 Sudoeste 9 Sudoeste 0 -- -- 57
2018-09-02 01:00:00 18.3 0 Calma 4 Sudoeste 0 -- -- 53
2018-09-02 00:00:00 20.2 0 Calma 8 Norte 0 -- -- 49
2018-09-01 23:00:00 23.3 6 Nordeste 17 Nordeste 0 -- -- 42
2018-09-01 22:00:00 24.5 9 Nordeste 21 Nordeste 0 -- -- 40
2018-09-01 21:00:00 26.5 14 Nordeste 25 Nordeste 0 -- -- 36
2018-09-01 20:00:00 29.2 16 Nordeste 26 Nordeste 0 -- -- 32
2018-09-01 19:00:00 30.3 6 Norte 18 Norte 0 -- -- 28
2018-09-01 18:00:00 31.9 6 Noroeste 16 Noroeste 0 -- -- 26
2018-09-01 17:00:00 31.6 6 Noroeste 18 Norte 0 -- -- 26
2018-09-01 16:00:00 30.4 8 Nordeste 16 Nordeste 0 -- -- 30
2018-09-01 15:00:00 29.4 4 Sur 16 Norte 0 -- -- 33
2018-09-01 14:00:00 27.8 8 Norte 17 Nordeste 0 -- -- 37
2018-09-01 13:00:00 26.4 6 Nordeste 17 Nordeste 0 -- -- 43
2018-09-01 12:00:00 24 8 Nordeste 19 Este 0 -- -- 50
2018-09-01 11:00:00 22.6 9 Nordeste 15 Este 0 -- -- 54
2018-09-01 10:00:00 20 2 Este 9 Sudoeste 0 -- -- 61
2018-09-01 09:00:00 15.8 7 Sudoeste 12 Sudoeste 0 -- -- 74
2018-09-01 08:00:00 12.6 10 Sudoeste 12 Sudoeste 0 -- -- 82
2018-09-01 07:00:00 12.7 8 Sudoeste 15 Sudoeste 0 -- -- 80
2018-09-01 06:00:00 13.3 8 Sudoeste 10 Sudoeste 0 -- -- 78
2018-09-01 05:00:00 13.8 6 Sudoeste 10 Sudoeste 0 -- -- 76
2018-09-01 04:00:00 14.3 5 Sudoeste 7 Sudoeste 0 -- -- 74
2018-09-01 03:00:00 15.1 0 Calma 3 Sur 0 -- -- 71
2018-09-01 02:00:00 16.6 0 Calma 4 Noroeste 0 -- -- 68
2018-09-01 01:00:00 18.3 0 Calma 11 Norte 0 -- -- 64
2018-09-01 00:00:00 19 5 Norte 20 Noroeste 0 -- -- 63
2018-08-31 23:00:00 20.3 11 Noroeste 27 Noroeste 0 -- -- 58
2018-08-31 22:00:00 22.8 9 Norte 23 Nordeste 0 -- -- 47
2018-08-31 21:00:00 24.6 13 Nordeste 30 Nordeste 0 -- -- 42
2018-08-31 20:00:00 26.9 20 Nordeste 31 Nordeste 0 -- -- 36
2018-08-31 19:00:00 28.7 15 Nordeste 27 Nordeste 0 -- -- 35
2018-08-31 18:00:00 29.4 13 Nordeste 30 Nordeste 0 -- -- 35
2018-08-31 17:00:00 31.2 8 Oeste 25 Oeste 0 -- -- 29
2018-08-31 16:00:00 30.2 8 Norte 25 Noroeste 0 -- -- 32
2018-08-31 15:00:00 28.9 10 Norte 21 Este 0 -- -- 36
2018-08-31 14:00:00 27.4 9 Este 19 Nordeste 0 -- -- 44
2018-08-31 13:00:00 25.3 9 Nordeste 19 Este 0 -- -- 51
2018-08-31 12:00:00 23.7 7 Nordeste 13 Nordeste 0 -- -- 55
2018-08-31 11:00:00 21.4 6 Nordeste 12 Este 0 -- -- 60
2018-08-31 10:00:00 19.1 4 Norte 7 Nordeste 0 -- -- 67
2018-08-31 09:00:00 15.4 3 Sur 10 Sur 0 -- -- 78
2018-08-31 08:00:00 13.8 4 Sur 9 Sudoeste 0 -- -- 80
2018-08-31 07:00:00 14.1 6 Sudoeste 9 Oeste 0 -- -- 78
2018-08-31 06:00:00 14.3 3 Sudoeste 6 Sur 0 -- -- 76
2018-08-31 05:00:00 14.8 2 Sudoeste 4 Sur 0 -- -- 74
2018-08-31 04:00:00 15.8 0 Calma 6 Sur 0 -- -- 71
2018-08-31 03:00:00 16.2 4 Sur 5 Sur 0 -- -- 69
2018-08-31 02:00:00 17.4 2 Sudoeste 5 Sur 0 -- -- 66
2018-08-31 01:00:00 19.5 4 Noroeste 10 Noroeste 0 -- -- 62
2018-08-31 00:00:00 20.6 3 Norte 6 Noroeste 0 -- -- 58
2018-08-30 23:00:00 22.1 4 Nordeste 12 Nordeste 0 -- -- 54
2018-08-30 22:00:00 23.3 7 Nordeste 22 Norte 0 -- -- 51
2018-08-30 21:00:00 24.4 13 Nordeste 37 Nordeste 0 -- -- 48
2018-08-30 20:00:00 26.7 20 Norte 34 Norte 0 -- -- 44
2018-08-30 19:00:00 29.8 18 Sudoeste 32 Sudoeste 0 -- -- 31
2018-08-30 18:00:00 31.6 18 Sudoeste 33 Sudoeste 0 -- -- 27
2018-08-30 17:00:00 31.5 17 Sudoeste 30 Sudoeste 0 -- -- 28
2018-08-30 16:00:00 30.3 6 Nordeste 16 Nordeste 0 -- -- 35
2018-08-30 15:00:00 28.9 8 Norte 18 Nordeste 0 -- -- 40
2018-08-30 14:00:00 28 6 Este 15 Este 0 -- -- 43
2018-08-30 13:00:00 25.8 6 Sudeste 13 Este 0 -- -- 48
2018-08-30 12:00:00 23.3 8 Nordeste 17 Nordeste 0 -- -- 55
2018-08-30 11:00:00 21.8 8 Nordeste 13 Este 0 -- -- 59
2018-08-30 10:00:00 19.2 0 Calma 5 Nordeste 0 -- -- 68
2018-08-30 09:00:00 15.6 3 Sudoeste 5 Sudoeste 0 -- -- 82
2018-08-30 08:00:00 13.4 7 Sudoeste 9 Sudoeste 0 -- -- 85
2018-08-30 07:00:00 13.3 5 Sudoeste 8 Sudoeste 0 -- -- 82
2018-08-30 06:00:00 13.8 3 Sudoeste 7 Sudoeste 0 -- -- 82
2018-08-30 05:00:00 14.5 5 Sudoeste 8 Sudoeste 0 -- -- 79
2018-08-30 04:00:00 15.1 2 Sudoeste 5 Sur 0 -- -- 79
2018-08-30 03:00:00 16.2 2 Sudoeste 5 Este 0 -- -- 76
2018-08-30 02:00:00 17.5 2 Norte 10 Norte 0 -- -- 73
2018-08-30 01:00:00 18 5 Norte 25 Norte 0 -- -- 73
2018-08-30 00:00:00 19 14 Noroeste 28 Noroeste 0 -- -- 70
2018-08-29 23:00:00 20.3 12 Noroeste 31 Noroeste 0 -- -- 64
2018-08-29 22:00:00 23 9 Norte 23 Nordeste 0 -- -- 54
2018-08-29 21:00:00 24.4 13 Nordeste 36 Nordeste 0 -- -- 49
2018-08-29 20:00:00 26.4 19 Nordeste 36 Nordeste 0 -- -- 44
2018-08-29 19:00:00 27.8 21 Nordeste 37 Nordeste 0 -- -- 37
2018-08-29 18:00:00 29.8 10 Nordeste 22 Nordeste 0 -- -- 32
2018-08-29 17:00:00 29.7 4 Nordeste 19 Este 0 -- -- 32
2018-08-29 16:00:00 30.1 6 Norte 21 Este 0 -- -- 33
2018-08-29 15:00:00 29 12 Nordeste 23 Nordeste 0 -- -- 36
2018-08-29 14:00:00 28.3 8 Nordeste 22 Nordeste 0 -- -- 39
2018-08-29 13:00:00 26.8 13 Nordeste 21 Nordeste 0 -- -- 44
2018-08-29 12:00:00 25.5 10 Este 18 Este 0 -- -- 48
2018-08-29 11:00:00 24.3 9 Nordeste 13 Este 0 -- -- 51
2018-08-29 10:00:00 22.3 3 Nordeste 12 Sudoeste 0 -- -- 56
2018-08-29 09:00:00 18 10 Oeste 13 Sudoeste 0 -- -- 68
2018-08-29 08:00:00 16.2 9 Sudoeste 14 Sudoeste 0 -- -- 72
2018-08-29 07:00:00 16.8 7 Sudoeste 12 Sudoeste 0 -- -- 68
2018-08-29 06:00:00 18.3 5 Sudoeste 12 Oeste 0 -- -- 61
2018-08-29 05:00:00 19.8 5 Oeste 9 Oeste 0 -- -- 56
2018-08-29 04:00:00 20.6 8 Oeste 10 Sudoeste 0 -- -- 53
2018-08-29 03:00:00 21.3 7 Oeste 15 Sudoeste 0 -- -- 52
2018-08-29 02:00:00 22.7 9 Sudoeste 15 Sudoeste 0 -- -- 52
2018-08-29 01:00:00 23.8 11 Sur 24 Sudoeste 0 -- -- 49
2018-08-29 00:00:00 24.3 9 Sudoeste 29 Oeste 0 -- -- 47
2018-08-28 23:00:00 25.7 15 Sur 23 Sur 0 -- -- 44
2018-08-28 22:00:00 25.4 6 Sudoeste 14 Oeste 0 -- -- 41
2018-08-28 21:00:00 26.7 10 Sur 26 Sur 0 -- -- 40
2018-08-28 20:00:00 28.7 19 Sur 45 Sudeste 0 -- -- 35
2018-08-28 19:00:00 30.9 24 Sur 57 Sudoeste 0 -- -- 32
2018-08-28 18:00:00 31.2 26 Sur 47 Sudoeste 0 -- -- 31
2018-08-28 17:00:00 32.5 24 Sur 50 Sudoeste 0 -- -- 28
2018-08-28 16:00:00 33.4 27 Sur 57 Sur 0 -- -- 27
2018-08-28 15:00:00 33.1 24 Sur 44 Sur 0 -- -- 28
2018-08-28 14:00:00 32.5 22 Sur 44 Sur 0 -- -- 29
2018-08-28 13:00:00 31.7 14 Sur 35 Sur 0 -- -- 32
2018-08-28 12:00:00 27.1 8 Nordeste 15 Este 0 -- -- 43
2018-08-28 11:00:00 24.4 8 Nordeste 13 Este 0 -- -- 46
2018-08-28 10:00:00 21.9 6 Nordeste 10 Este 0 -- -- 48
2018-08-28 09:00:00 17.8 8 Sudoeste 13 Sudoeste 0 -- -- 54
2018-08-28 08:00:00 16.5 7 Sur 17 Sudoeste 0 -- -- 55
2018-08-28 07:00:00 16.4 13 Sudoeste 21 Sudoeste 0 -- -- 57
2018-08-28 06:00:00 16.1 5 Sudoeste 14 Sudoeste 0 -- -- 58
2018-08-28 05:00:00 16.9 8 Sudoeste 14 Sudoeste 0 -- -- 58
2018-08-28 04:00:00 17.7 9 Sudoeste 15 Sudoeste 0 -- -- 56
2018-08-28 03:00:00 18.3 10 Sudoeste 14 Oeste 0 -- -- 54
2018-08-28 02:00:00 19.1 5 Sudoeste 13 Oeste 0 -- -- 48
2018-08-28 01:00:00 19.8 2 Sudoeste 8 Sur 0 -- -- 47
2018-08-28 00:00:00 21.1 2 Oeste 8 Sur 0 -- -- 37
2018-08-27 23:00:00 23.4 4 Sur 13 Oeste 0 -- -- 31
2018-08-27 22:00:00 25 8 Oeste 12 Sudoeste 0 -- -- 28
2018-08-27 21:00:00 28.2 8 Sudoeste 21 Sudoeste 0 -- -- 24
2018-08-27 20:00:00 32 14 Sudoeste 32 Sudoeste 0 -- -- 19
2018-08-27 19:00:00 33.4 23 Sudoeste 41 Sudoeste 0 -- -- 19
2018-08-27 18:00:00 35.1 14 Sur 30 Sur 0 -- -- 19
2018-08-27 17:00:00 35 15 Sur 37 Sudoeste 0 -- -- 19
2018-08-27 16:00:00 33.7 6 Nordeste 23 Norte 0 -- -- 24
2018-08-27 15:00:00 32.4 5 Este 19 Nordeste 0 -- -- 25
2018-08-27 14:00:00 30.5 10 Nordeste 19 Nordeste 0 -- -- 30
2018-08-27 13:00:00 28.4 11 Nordeste 17 Nordeste 0 -- -- 37
2018-08-27 12:00:00 26.1 8 Este 15 Nordeste 0 -- -- 41
2018-08-27 11:00:00 23.8 5 Nordeste 10 Nordeste 0 -- -- 45
2018-08-27 10:00:00 21.3 2 Sudeste 9 Sudoeste 0 -- -- 51
2018-08-27 09:00:00 16.3 6 Sudoeste 13 Sudoeste 0 -- -- 63
2018-08-27 08:00:00 13 9 Sudoeste 12 Sudoeste 0 -- -- 72
2018-08-27 07:00:00 13 8 Sudoeste 13 Sudoeste 0 -- -- 70
2018-08-27 06:00:00 13.6 9 Sudoeste 13 Sudoeste 0 -- -- 68
2018-08-27 05:00:00 14.3 10 Sudoeste 13 Sudoeste 0 -- -- 66
2018-08-27 04:00:00 15 6 Sudoeste 11 Sudoeste 0 -- -- 62
2018-08-27 03:00:00 15.6 6 Sudoeste 8 Sudoeste 0 -- -- 60
2018-08-27 02:00:00 16.1 3 Sur 5 Sur 0 -- -- 56
2018-08-27 01:00:00 17.5 2 Sudoeste 5 Sur 0 -- -- 50
2018-08-27 00:00:00 19.2 2 Sudoeste 11 Nordeste 0 -- -- 46
2018-08-26 23:00:00 21.1 7 Sudoeste 10 Sudoeste 0 -- -- 42
2018-08-26 22:00:00 23.4 6 Sudoeste 16 Oeste 0 -- -- 38
2018-08-26 21:00:00 26.7 13 Oeste 20 Oeste 0 -- -- 33
2018-08-26 20:00:00 28.2 8 Oeste 15 Oeste 0 -- -- 31
2018-08-26 19:00:00 30.2 4 Sudoeste 26 Sudoeste 0 -- -- 29
2018-08-26 18:00:00 31.1 13 Oeste 28 Sudoeste 0 -- -- 28
2018-08-26 17:00:00 31.6 17 Sudoeste 41 Sur 0 -- -- 27
2018-08-26 16:00:00 31.1 15 Sudoeste 31 Sudoeste 0 -- -- 28
2018-08-26 15:00:00 29.9 16 Sudoeste 35 Sudoeste 0 -- -- 31
2018-08-26 14:00:00 27.6 6 Nordeste 15 Este 0 -- -- 37
2018-08-26 13:00:00 24.8 7 Nordeste 13 Nordeste 0 -- -- 43
2018-08-26 12:00:00 21.7 8 Nordeste 13 Norte 0 -- -- 48
2018-08-26 11:00:00 18.9 2 Este 8 Este 0 -- -- 55
2018-08-26 10:00:00 15.9 2 Sur 6 Sur 0 -- -- 65
2018-08-26 09:00:00 12.7 3 Sur 9 Sudoeste 0 -- -- 75
2018-08-26 08:00:00 9.8 6 Sudoeste 10 Sudoeste 0 -- -- 83
2018-08-26 07:00:00 10.1 7 Sudoeste 10 Sudoeste 0 -- -- 80
2018-08-26 06:00:00 10.3 5 Sudoeste 9 Sudoeste 0 -- -- 79
2018-08-26 05:00:00 10.9 0 Calma 4 Sudeste 0 -- -- 75
2018-08-26 04:00:00 11.6 0 Calma 4 Sur 0 -- -- 73
2018-08-26 03:00:00 12.5 0 Calma 4 Sur 0 -- -- 72
2018-08-26 02:00:00 14.1 0 Calma 10 Nordeste 0 -- -- 66
2018-08-26 01:00:00 15.2 4 Norte 17 Norte 0 -- -- 65
2018-08-26 00:00:00 16.1 7 Norte 20 Noroeste 0 -- -- 63
2018-08-25 23:00:00 17.1 11 Noroeste 21 Noroeste 0 -- -- 59
2018-08-25 22:00:00 19.3 8 Norte 23 Nordeste 0 -- -- 52
2018-08-25 21:00:00 21.6 12 Norte 29 Nordeste 0 -- -- 45
2018-08-25 20:00:00 24.1 15 Nordeste 33 Nordeste 0 -- -- 40
2018-08-25 19:00:00 26.5 21 Nordeste 32 Norte 0 -- -- 36
2018-08-25 18:00:00 28.7 7 Este 19 Norte 0 -- -- 29
2018-08-25 17:00:00 29.1 10 Norte 22 Norte 0 -- -- 29
2018-08-25 16:00:00 28.7 7 Norte 20 Nordeste 0 -- -- 30
2018-08-25 15:00:00 27.6 6 Nordeste 17 Norte 0 -- -- 34
2018-08-25 14:00:00 25.2 11 Nordeste 23 Nordeste 0 -- -- 37
2018-08-25 13:00:00 23.2 7 Nordeste 15 Nordeste 0 -- -- 42
2018-08-25 12:00:00 21.5 6 Nordeste 12 Nordeste 0 -- -- 48
2018-08-25 11:00:00 19.2 3 Este 10 Nordeste 0 -- -- 56
2018-08-25 10:00:00 16.7 4 Nordeste 9 Oeste 0 -- -- 65
2018-08-25 09:00:00 12.6 7 Oeste 9 Sudoeste 0 -- -- 79
2018-08-25 08:00:00 10.1 6 Sudoeste 11 Oeste 0 -- -- 82
2018-08-25 07:00:00 10.4 8 Sudoeste 12 Sudoeste 0 -- -- 81
2018-08-25 06:00:00 11.2 8 Sudoeste 10 Sudoeste 0 -- -- 80
2018-08-25 05:00:00 11.8 6 Sudoeste 14 Sudoeste 0 -- -- 78
2018-08-25 04:00:00 12.6 4 Sudoeste 9 Sudoeste 0 -- -- 76
2018-08-25 03:00:00 13.6 3 Sudoeste 5 Sudoeste 0 -- -- 71
2018-08-25 02:00:00 14.3 0 Calma 6 Sur 0 -- -- 70
2018-08-25 01:00:00 15.7 2 Sudeste 10 Nordeste 0 -- -- 65
2018-08-25 00:00:00 17 6 Este 16 Noroeste 0 -- -- 64